Time,TemperatureF,DewpointF,PressureIn,WindDirection,WindDirectionDegrees,WindSpeedMPH,WindSpeedGustMPH,Humidity,HourlyPrecipIn,Conditions,Clouds,dailyrainin,SoftwareType,DateUTC
2013-01-04 00:00:00,27.0,24.5,30.33,NNW,328,0.0,0.0,90,0.00,,---,0.00,VWS V14.01,2013-01-04 05:00:00,
2013-01-04 00:02:00,27.0,24.7,30.33,NNW,327,0.0,0.0,91,0.00,,---,0.00,VWS V14.01,2013-01-04 05:02:00,
2013-01-04 00:03:00,27.0,24.7,30.33,NNW,328,0.0,0.0,91,0.00,,---,0.00,VWS V14.01,2013-01-04 05:03:00,
2013-01-04 00:08:00,27.0,24.7,30.34,NNE,16,1.0,1.0,91,0.00,,---,0.00,VWS V14.01,2013-01-04 05:08:00,
2013-01-04 00:13:00,27.0,24.7,30.34,NNE,18,0.0,0.0,91,0.00,,---,0.00,VWS V14.01,2013-01-04 05:13:00,
2013-01-04 00:18:00,27.0,24.7,30.35,NNE,16,0.0,1.0,91,0.00,,---,0.00,VWS V14.01,2013-01-04 05:18:00,
2013-01-04 00:23:00,27.1,24.6,30.35,NNE,26,0.0,0.0,90,0.00,,---,0.00,VWS V14.01,2013-01-04 05:23:00,
2013-01-04 00:28:00,27.2,24.7,30.35,North,350,0.0,0.0,90,0.00,,---,0.00,VWS V14.01,2013-01-04 05:28:00,
2013-01-04 00:33:00,27.1,24.3,30.35,North,352,0.0,0.0,89,0.00,,---,0.00,VWS V14.01,2013-01-04 05:33:00,
2013-01-04 00:38:00,27.1,24.3,30.35,North,354,0.0,0.0,89,0.00,,---,0.00,VWS V14.01,2013-01-04 05:38:00,
2013-01-04 00:43:00,26.9,24.4,30.35,West,277,0.0,0.0,90,0.00,,---,0.00,VWS V14.01,2013-01-04 05:43:00,
2013-01-04 00:48:00,26.8,24.3,30.35,West,276,0.0,0.0,90,0.00,,---,0.00,VWS V14.01,2013-01-04 05:48:00,
2013-01-04 00:53:00,26.7,24.2,30.35,West,277,0.0,0.0,90,0.00,,---,0.00,VWS V14.01,2013-01-04 05:53:00,
2013-01-04 00:58:00,26.8,24.0,30.35,West,277,0.0,1.0,89,0.00,,---,0.00,VWS V14.01,2013-01-04 05:58:00,
2013-01-04 01:03:00,26.9,24.1,30.35,West,276,0.0,0.0,89,0.00,,---,0.00,VWS V14.01,2013-01-04 06:03:00,
2013-01-04 01:08:00,26.7,23.9,30.35,West,277,0.0,0.0,89,0.00,,---,0.00,VWS V14.01,2013-01-04 06:08:00,
2013-01-04 01:13:00,26.6,23.5,30.35,West,280,0.0,0.0,88,0.00,,---,0.00,VWS V14.01,2013-01-04 06:13:00,
2013-01-04 01:18:00,26.6,23.8,30.35,North,11,0.0,0.0,89,0.00,,---,0.00,VWS V14.01,2013-01-04 06:18:00,
2013-01-04 01:23:00,26.5,23.7,30.34,North,11,0.0,0.0,89,0.00,,---,0.00,VWS V14.01,2013-01-04 06:23:00,
2013-01-04 01:28:00,26.4,23.6,30.34,North,11,0.0,0.0,89,0.00,,---,0.00,VWS V14.01,2013-01-04 06:28:00,
2013-01-04 01:33:00,26.8,22.9,30.34,North,350,0.0,1.0,85,0.00,,---,0.00,VWS V14.01,2013-01-04 06:33:00,
2013-01-04 01:38:00,26.9,23.6,30.34,North,351,0.0,0.0,87,0.00,,---,0.00,VWS V14.01,2013-01-04 06:38:00,
2013-01-04 01:43:00,26.6,23.8,30.34,North,351,0.0,0.0,89,0.00,,---,0.00,VWS V14.01,2013-01-04 06:43:00,
2013-01-04 01:48:00,26.4,23.3,30.34,North,350,0.0,0.0,88,0.00,,---,0.00,VWS V14.01,2013-01-04 06:48:00,
2013-01-04 01:53:00,26.4,23.6,30.33,North,8,0.0,0.0,89,0.00,,---,0.00,VWS V14.01,2013-01-04 06:53:00,
2013-01-04 01:58:00,26.2,23.7,30.33,North,8,0.0,0.0,90,0.00,,---,0.00,VWS V14.01,2013-01-04 06:58:00,
2013-01-04 02:03:00,26.0,23.2,30.33,North,350,0.0,0.0,89,0.00,,---,0.00,VWS V14.01,2013-01-04 07:03:00,
2013-01-04 02:08:00,25.9,22.8,30.33,North,350,1.0,1.0,88,0.00,,---,0.00,VWS V14.01,2013-01-04 07:08:00,
2013-01-04 02:13:00,25.8,23.0,30.33,North,350,0.0,0.0,89,0.00,,---,0.00,VWS V14.01,2013-01-04 07:13:00,
2013-01-04 02:18:00,25.7,22.9,30.34,North,350,0.0,0.0,89,0.00,,---,0.00,VWS V14.01,2013-01-04 07:18:00,
2013-01-04 02:23:00,25.7,22.6,30.34,North,350,0.0,0.0,88,0.00,,---,0.00,VWS V14.01,2013-01-04 07:23:00,
2013-01-04 02:28:00,25.6,23.1,30.35,NNE,23,0.0,1.0,90,0.00,,---,0.00,VWS V14.01,2013-01-04 07:28:00,
2013-01-04 02:33:00,25.5,23.0,30.35,NNE,23,0.0,0.0,90,0.00,,---,0.00,VWS V14.01,2013-01-04 07:33:00,
2013-01-04 02:38:00,25.5,22.7,30.35,NNE,23,0.0,0.0,89,0.00,,---,0.00,VWS V14.01,2013-01-04 07:38:00,
2013-01-04 02:43:00,25.5,23.0,30.35,NNE,25,1.0,1.0,90,0.00,,---,0.00,VWS V14.01,2013-01-04 07:43:00,
2013-01-04 02:48:00,25.5,22.7,30.35,NNE,23,0.0,1.0,89,0.00,,---,0.00,VWS V14.01,2013-01-04 07:48:00,
2013-01-04 02:53:00,25.5,23.0,30.35,NNE,23,0.0,0.0,90,0.00,,---,0.00,VWS V14.01,2013-01-04 07:53:00,
2013-01-04 02:58:00,25.4,22.6,30.35,NNE,23,0.0,0.0,89,0.00,,---,0.00,VWS V14.01,2013-01-04 07:58:00,
2013-01-04 03:03:00,25.4,22.9,30.35,NNE,23,0.0,0.0,90,0.00,,---,0.00,VWS V14.01,2013-01-04 08:03:00,
2013-01-04 03:08:00,25.3,22.8,30.36,NNE,23,0.0,0.0,90,0.00,,---,0.00,VWS V14.01,2013-01-04 08:08:00,
2013-01-04 03:13:00,25.3,22.8,30.36,NNE,23,0.0,0.0,90,0.00,,---,0.00,VWS V14.01,2013-01-04 08:13:00,
2013-01-04 03:18:00,25.3,22.5,30.36,NNE,23,0.0,0.0,89,0.00,,---,0.00,VWS V14.01,2013-01-04 08:18:00,
2013-01-04 03:23:00,25.2,22.7,30.36,NNE,23,1.0,1.0,90,0.00,,---,0.00,VWS V14.01,2013-01-04 08:23:00,
2013-01-04 03:28:00,25.1,22.6,30.36,NNE,23,0.0,1.0,90,0.00,,---,0.00,VWS V14.01,2013-01-04 08:28:00,
2013-01-04 03:33:00,25.2,22.4,30.36,NNE,23,0.0,0.0,89,0.00,,---,0.00,VWS V14.01,2013-01-04 08:33:00,
2013-01-04 03:38:00,25.2,22.7,30.36,NNE,23,0.0,0.0,90,0.00,,---,0.00,VWS V14.01,2013-01-04 08:38:00,
2013-01-04 03:43:00,25.3,22.5,30.36,NNE,23,0.0,0.0,89,0.00,,---,0.00,VWS V14.01,2013-01-04 08:43:00,
2013-01-04 03:48:00,25.2,22.7,30.35,NNE,23,0.0,0.0,90,0.00,,---,0.00,VWS V14.01,2013-01-04 08:48:00,
2013-01-04 03:53:00,25.1,22.3,30.35,NNE,23,0.0,0.0,89,0.00,,---,0.00,VWS V14.01,2013-01-04 08:53:00,
2013-01-04 03:58:00,25.1,22.6,30.36,NNE,23,0.0,0.0,90,0.00,,---,0.00,VWS V14.01,2013-01-04 08:58:00,
2013-01-04 04:03:00,25.0,22.2,30.36,NNE,23,0.0,0.0,89,0.00,,---,0.00,VWS V14.01,2013-01-04 09:03:00,
2013-01-04 04:08:00,25.0,22.5,30.35,NNE,23,1.0,1.0,90,0.00,,---,0.00,VWS V14.01,2013-01-04 09:08:00,
2013-01-04 04:13:00,24.9,22.1,30.35,NNE,23,0.0,0.0,89,0.00,,---,0.00,VWS V14.01,2013-01-04 09:13:00,
2013-01-04 04:18:00,24.9,22.1,30.35,NNE,23,0.0,0.0,89,0.00,,---,0.00,VWS V14.01,2013-01-04 09:18:00,
2013-01-04 04:23:00,24.8,22.3,30.34,NNE,23,0.0,0.0,90,0.00,,---,0.00,VWS V14.01,2013-01-04 09:23:00,
2013-01-04 04:28:00,24.7,22.2,30.34,NNE,23,0.0,0.0,90,0.00,,---,0.00,VWS V14.01,2013-01-04 09:28:00,
2013-01-04 04:33:00,24.6,21.8,30.35,NNE,23,1.0,1.0,89,0.00,,---,0.00,VWS V14.01,2013-01-04 09:33:00,
2013-01-04 04:38:00,24.5,22.0,30.34,NNE,23,0.0,1.0,90,0.00,,---,0.00,VWS V14.01,2013-01-04 09:38:00,
2013-01-04 04:43:00,24.6,22.1,30.34,NNE,23,0.0,1.0,90,0.00,,---,0.00,VWS V14.01,2013-01-04 09:43:00,
2013-01-04 04:48:00,24.6,22.1,30.34,NNE,23,0.0,0.0,90,0.00,,---,0.00,VWS V14.01,2013-01-04 09:48:00,
2013-01-04 04:53:00,24.7,21.9,30.34,NNE,23,0.0,0.0,89,0.00,,---,0.00,VWS V14.01,2013-01-04 09:53:00,
2013-01-04 04:58:00,24.6,21.8,30.35,NNE,23,0.0,0.0,89,0.00,,---,0.00,VWS V14.01,2013-01-04 09:58:00,
2013-01-04 05:03:00,24.6,21.8,30.35,NNE,23,0.0,1.0,89,0.00,,---,0.00,VWS V14.01,2013-01-04 10:03:00,
2013-01-04 05:08:00,24.7,21.7,30.35,NNE,23,0.0,0.0,88,0.00,,---,0.00,VWS V14.01,2013-01-04 10:08:00,
2013-01-04 05:13:00,24.6,21.8,30.34,NNE,23,0.0,0.0,89,0.00,,---,0.00,VWS V14.01,2013-01-04 10:13:00,
2013-01-04 05:18:00,24.6,21.8,30.35,NNE,23,0.0,0.0,89,0.00,,---,0.00,VWS V14.01,2013-01-04 10:18:00,
2013-01-04 05:23:00,24.6,21.8,30.35,NNE,23,1.0,1.0,89,0.00,,---,0.00,VWS V14.01,2013-01-04 10:23:00,
2013-01-04 05:28:00,24.6,21.6,30.35,NNE,23,0.0,0.0,88,0.00,,---,0.00,VWS V14.01,2013-01-04 10:28:00,
2013-01-04 05:33:00,24.7,22.2,30.35,NNE,23,0.0,0.0,90,0.00,,---,0.00,VWS V14.01,2013-01-04 10:33:00,
2013-01-04 05:38:00,24.7,21.9,30.35,NNE,23,0.0,0.0,89,0.00,,---,0.00,VWS V14.01,2013-01-04 10:38:00,
2013-01-04 05:43:00,24.7,22.2,30.35,NNE,23,0.0,0.0,90,0.00,,---,0.00,VWS V14.01,2013-01-04 10:43:00,
2013-01-04 05:48:00,24.7,22.2,30.35,NNE,23,0.0,1.0,90,0.00,,---,0.00,VWS V14.01,2013-01-04 10:48:00,
2013-01-04 05:53:00,24.7,21.7,30.35,NNE,23,0.0,0.0,88,0.00,,---,0.00,VWS V14.01,2013-01-04 10:53:00,
2013-01-04 05:58:00,24.8,22.0,30.34,NNE,23,0.0,1.0,89,0.00,,---,0.00,VWS V14.01,2013-01-04 10:58:00,
2013-01-04 06:03:00,24.8,22.3,30.35,NNE,23,0.0,0.0,90,0.00,,---,0.00,VWS V14.01,2013-01-04 11:03:00,
2013-01-04 06:08:00,24.7,21.9,30.35,NNE,23,0.0,0.0,89,0.00,,---,0.00,VWS V14.01,2013-01-04 11:08:00,
2013-01-04 06:13:00,24.7,21.7,30.35,NNE,23,0.0,0.0,88,0.00,,---,0.00,VWS V14.01,2013-01-04 11:13:00,
2013-01-04 06:18:00,24.7,21.9,30.35,NNE,23,0.0,0.0,89,0.00,,---,0.00,VWS V14.01,2013-01-04 11:18:00,
2013-01-04 06:23:00,24.7,21.9,30.35,NNE,23,0.0,0.0,89,0.00,,---,0.00,VWS V14.01,2013-01-04 11:23:00,
2013-01-04 06:28:00,24.6,21.6,30.36,NNE,13,0.0,0.0,88,0.00,,---,0.00,VWS V14.01,2013-01-04 11:28:00,
2013-01-04 06:33:00,24.7,21.9,30.35,NNE,13,0.0,1.0,89,0.00,,---,0.00,VWS V14.01,2013-01-04 11:33:00,
2013-01-04 06:38:00,24.7,22.2,30.36,NNE,13,0.0,0.0,90,0.00,,---,0.00,VWS V14.01,2013-01-04 11:38:00,
2013-01-04 06:43:00,24.7,21.7,30.36,NNE,13,0.0,0.0,88,0.00,,---,0.00,VWS V14.01,2013-01-04 11:43:00,
2013-01-04 06:48:00,24.7,22.2,30.35,NNE,13,0.0,0.0,90,0.00,,---,0.00,VWS V14.01,2013-01-04 11:48:00,
2013-01-04 06:53:00,24.6,21.3,30.36,NNE,13,0.0,0.0,87,0.00,,---,0.00,VWS V14.01,2013-01-04 11:53:00,
2013-01-04 06:58:00,24.6,21.6,30.36,NNE,13,0.0,0.0,88,0.00,,---,0.00,VWS V14.01,2013-01-04 11:58:00,
2013-01-04 07:03:00,24.6,21.8,30.37,NNE,13,0.0,0.0,89,0.00,,---,0.00,VWS V14.01,2013-01-04 12:03:00,
2013-01-04 07:08:00,24.6,21.6,30.37,NNE,13,0.0,0.0,88,0.00,,---,0.00,VWS V14.01,2013-01-04 12:08:00,
2013-01-04 07:13:00,24.6,21.6,30.37,NNE,13,0.0,1.0,88,0.00,,---,0.00,VWS V14.01,2013-01-04 12:13:00,
2013-01-04 07:18:00,24.6,21.6,30.38,NNE,13,0.0,1.0,88,0.00,,---,0.00,VWS V14.01,2013-01-04 12:18:00,
2013-01-04 07:23:00,24.5,20.9,30.38,NNE,13,0.0,0.0,86,0.00,,---,0.00,VWS V14.01,2013-01-04 12:23:00,
2013-01-04 07:28:00,24.5,21.5,30.38,NNE,13,0.0,0.0,88,0.00,,---,0.00,VWS V14.01,2013-01-04 12:28:00,
2013-01-04 07:33:00,24.4,21.4,30.38,NNE,13,0.0,0.0,88,0.00,,---,0.00,VWS V14.01,2013-01-04 12:33:00,
2013-01-04 07:38:00,24.4,20.8,30.38,NNE,13,0.0,0.0,86,0.00,,---,0.00,VWS V14.01,2013-01-04 12:38:00,
2013-01-04 07:43:00,24.4,21.4,30.38,NNE,13,0.0,0.0,88,0.00,,---,0.00,VWS V14.01,2013-01-04 12:43:00,
2013-01-04 07:48:00,24.3,21.3,30.38,NNE,13,0.0,0.0,88,0.00,,---,0.00,VWS V14.01,2013-01-04 12:48:00,
2013-01-04 07:53:00,24.3,21.3,30.38,NNE,13,0.0,0.0,88,0.00,,---,0.00,VWS V14.01,2013-01-04 12:53:00,
2013-01-04 07:58:00,24.3,21.3,30.39,NNE,13,0.0,0.0,88,0.00,,---,0.00,VWS V14.01,2013-01-04 12:58:00,
2013-01-04 08:03:00,24.4,21.1,30.39,NNE,15,0.0,0.0,87,0.00,,---,0.00,VWS V14.01,2013-01-04 13:03:00,
2013-01-04 08:08:00,24.5,21.5,30.39,NNE,15,0.0,0.0,88,0.00,,---,0.00,VWS V14.01,2013-01-04 13:08:00,
2013-01-04 08:13:00,24.6,21.6,30.39,NNE,15,0.0,0.0,88,0.00,,---,0.00,VWS V14.01,2013-01-04 13:13:00,
2013-01-04 08:18:00,24.6,21.6,30.39,NNE,15,0.0,0.0,88,0.00,,---,0.00,VWS V14.01,2013-01-04 13:18:00,
2013-01-04 08:23:00,24.7,21.1,30.39,NNE,15,0.0,0.0,86,0.00,,---,0.00,VWS V14.01,2013-01-04 13:23:00,
2013-01-04 08:28:00,24.8,21.2,30.39,NNE,15,0.0,0.0,86,0.00,,---,0.00,VWS V14.01,2013-01-04 13:28:00,
2013-01-04 08:33:00,25.0,20.3,30.40,NE,37,0.0,0.0,82,0.00,,---,0.00,VWS V14.01,2013-01-04 13:33:00,
2013-01-04 08:38:00,25.3,20.9,30.39,NW,311,0.0,0.0,83,0.00,,---,0.00,VWS V14.01,2013-01-04 13:38:00,
2013-01-04 08:43:00,25.5,21.1,30.40,NW,311,0.0,0.0,83,0.00,,---,0.00,VWS V14.01,2013-01-04 13:43:00,
2013-01-04 08:48:00,25.6,21.2,30.40,NE,37,0.0,1.0,83,0.00,,---,0.00,VWS V14.01,2013-01-04 13:48:00,
2013-01-04 08:53:00,26.0,21.0,30.40,South,191,0.0,0.0,81,0.00,,---,0.00,VWS V14.01,2013-01-04 13:53:00,
2013-01-04 08:58:00,26.1,21.6,30.40,South,190,0.0,0.0,83,0.00,,---,0.00,VWS V14.01,2013-01-04 13:58:00,
2013-01-04 09:03:00,26.2,21.2,30.40,SE,131,0.0,0.0,81,0.00,,---,0.00,VWS V14.01,2013-01-04 14:03:00,
2013-01-04 09:08:00,26.5,20.0,30.40,WSW,249,1.0,1.0,76,0.00,,---,0.00,VWS V14.01,2013-01-04 14:08:00,
2013-01-04 09:13:00,26.9,21.0,30.40,ENE,68,1.0,1.0,78,0.00,,---,0.00,VWS V14.01,2013-01-04 14:13:00,
2013-01-04 09:18:00,27.1,21.2,30.41,ENE,70,0.0,0.0,78,0.00,,---,0.00,VWS V14.01,2013-01-04 14:18:00,
2013-01-04 09:23:00,27.3,21.1,30.41,East,97,1.0,1.0,77,0.00,,---,0.00,VWS V14.01,2013-01-04 14:23:00,
2013-01-04 09:28:00,27.4,20.5,30.41,WNW,300,2.0,3.0,75,0.00,,---,0.00,VWS V14.01,2013-01-04 14:28:00,
2013-01-04 09:33:00,28.2,20.4,30.41,WNW,288,0.0,0.0,72,0.00,,---,0.00,VWS V14.01,2013-01-04 14:33:00,
2013-01-04 09:38:00,28.5,21.0,30.41,SW,226,2.0,2.0,73,0.00,,---,0.00,VWS V14.01,2013-01-04 14:38:00,
2013-01-04 09:43:00,28.5,22.2,30.41,SW,226,0.0,1.0,77,0.00,,---,0.00,VWS V14.01,2013-01-04 14:43:00,
2013-01-04 09:48:00,28.9,21.0,30.41,WSW,253,2.0,4.0,72,0.00,,---,0.00,VWS V14.01,2013-01-04 14:48:00,
2013-01-04 09:53:00,29.7,21.1,30.41,NNW,337,0.0,1.0,70,0.00,,---,0.00,VWS V14.01,2013-01-04 14:53:00,
2013-01-04 09:58:00,30.0,22.1,30.41,NE,44,0.0,1.0,72,0.00,,---,0.00,VWS V14.01,2013-01-04 14:58:00,
2013-01-04 10:03:00,30.4,21.1,30.40,SE,131,4.0,4.0,68,0.00,,---,0.00,VWS V14.01,2013-01-04 15:03:00,
2013-01-04 10:08:00,31.0,21.7,30.41,West,266,1.0,1.0,68,0.00,,---,0.00,VWS V14.01,2013-01-04 15:08:00,
2013-01-04 10:13:00,31.3,21.3,30.41,South,174,0.0,1.0,66,0.00,,---,0.00,VWS V14.01,2013-01-04 15:13:00,
2013-01-04 10:18:00,31.4,21.0,30.41,South,179,2.0,2.0,65,0.00,,---,0.00,VWS V14.01,2013-01-04 15:18:00,
2013-01-04 10:23:00,31.7,20.2,30.41,WNW,284,1.0,4.0,62,0.00,,---,0.00,VWS V14.01,2013-01-04 15:23:00,
2013-01-04 10:28:00,31.7,20.2,30.41,SW,219,3.0,8.0,62,0.00,,---,0.00,VWS V14.01,2013-01-04 15:28:00,
2013-01-04 10:33:00,31.7,20.2,30.41,North,11,0.0,0.0,62,0.00,,---,0.00,VWS V14.01,2013-01-04 15:33:00,
2013-01-04 10:38:00,32.0,20.1,30.41,ESE,115,1.0,2.0,61,0.00,,---,0.00,VWS V14.01,2013-01-04 15:38:00,
2013-01-04 10:43:00,32.1,19.8,30.41,ESE,109,1.0,8.0,60,0.00,,---,0.00,VWS V14.01,2013-01-04 15:43:00,
2013-01-04 10:48:00,32.1,20.6,30.41,SSE,162,0.0,0.0,62,0.00,,---,0.00,VWS V14.01,2013-01-04 15:48:00,
2013-01-04 10:53:00,32.5,20.6,30.42,NE,47,1.0,4.0,61,0.00,,---,0.00,VWS V14.01,2013-01-04 15:53:00,
2013-01-04 10:58:00,32.2,19.9,30.42,SW,215,1.0,2.0,60,0.00,,---,0.00,VWS V14.01,2013-01-04 15:58:00,
2013-01-04 11:03:00,32.3,20.4,30.42,West,260,1.0,1.0,61,0.00,,---,0.00,VWS V14.01,2013-01-04 16:03:00,
2013-01-04 11:08:00,32.6,20.7,30.42,West,271,4.0,14.0,61,0.00,,---,0.00,VWS V14.01,2013-01-04 16:08:00,
2013-01-04 11:13:00,32.8,22.0,30.42,SSE,150,1.0,1.0,64,0.00,,---,0.00,VWS V14.01,2013-01-04 16:13:00,
2013-01-04 11:18:00,32.9,20.9,30.42,SSW,201,1.0,1.0,61,0.00,,---,0.00,VWS V14.01,2013-01-04 16:18:00,
2013-01-04 11:23:00,33.1,20.7,30.42,SE,131,1.0,6.0,60,0.00,,---,0.00,VWS V14.01,2013-01-04 16:23:00,
2013-01-04 11:28:00,33.1,20.7,30.42,SSE,160,3.0,3.0,60,0.00,,---,0.00,VWS V14.01,2013-01-04 16:28:00,
2013-01-04 11:33:00,33.4,21.0,30.41,South,172,2.0,7.0,60,0.00,,---,0.00,VWS V14.01,2013-01-04 16:33:00,
2013-01-04 11:38:00,33.7,21.3,30.41,West,266,6.0,6.0,60,0.00,,---,0.00,VWS V14.01,2013-01-04 16:38:00,
2013-01-04 11:43:00,34.1,20.5,30.40,SE,135,0.0,3.0,57,0.00,,---,0.00,VWS V14.01,2013-01-04 16:43:00,
2013-01-04 11:48:00,34.3,20.7,30.40,ESE,121,0.0,2.0,57,0.00,,---,0.00,VWS V14.01,2013-01-04 16:48:00,
2013-01-04 11:53:00,34.7,21.9,30.40,SSW,192,2.0,7.0,59,0.00,,---,0.00,VWS V14.01,2013-01-04 16:53:00,
2013-01-04 11:58:00,34.7,19.3,30.40,SSW,212,3.0,5.0,53,0.00,,---,0.00,VWS V14.01,2013-01-04 16:58:00,
2013-01-04 12:03:00,35.3,20.3,30.39,SSW,193,3.0,3.0,54,0.00,,---,0.00,VWS V14.01,2013-01-04 17:03:00,
2013-01-04 12:08:00,35.6,19.7,30.39,NW,314,1.0,2.0,52,0.00,,---,0.00,VWS V14.01,2013-01-04 17:08:00,
2013-01-04 12:13:00,35.6,18.8,30.39,East,101,5.0,5.0,50,0.00,,---,0.00,VWS V14.01,2013-01-04 17:13:00,
2013-01-04 12:18:00,35.7,19.8,30.39,North,350,2.0,2.0,52,0.00,,---,0.00,VWS V14.01,2013-01-04 17:18:00,
2013-01-04 12:23:00,36.3,19.9,30.38,South,176,3.0,3.0,51,0.00,,---,0.00,VWS V14.01,2013-01-04 17:23:00,
2013-01-04 12:28:00,36.9,19.1,30.38,SSW,212,4.0,6.0,48,0.00,,---,0.00,VWS V14.01,2013-01-04 17:28:00,
2013-01-04 12:33:00,36.9,20.0,30.37,South,187,5.0,6.0,50,0.00,,---,0.00,VWS V14.01,2013-01-04 17:33:00,
2013-01-04 12:38:00,36.7,18.4,30.37,West,277,2.0,6.0,47,0.00,,---,0.00,VWS V14.01,2013-01-04 17:38:00,
2013-01-04 12:43:00,36.5,18.2,30.37,SW,227,3.0,6.0,47,0.00,,---,0.00,VWS V14.01,2013-01-04 17:43:00,
2013-01-04 12:48:00,36.8,21.3,30.37,SSW,213,2.0,2.0,53,0.00,,---,0.00,VWS V14.01,2013-01-04 17:48:00,
2013-01-04 12:53:00,37.3,19.9,30.36,SE,127,2.0,8.0,49,0.00,,---,0.00,VWS V14.01,2013-01-04 17:53:00,
2013-01-04 12:58:00,37.6,19.7,30.36,SE,128,4.0,13.0,48,0.00,,---,0.00,VWS V14.01,2013-01-04 17:58:00,
2013-01-04 13:03:00,37.5,19.6,30.36,South,174,3.0,3.0,48,0.00,,---,0.00,VWS V14.01,2013-01-04 18:03:00,
2013-01-04 13:08:00,37.7,19.3,30.36,East,100,3.0,4.0,47,0.00,,---,0.00,VWS V14.01,2013-01-04 18:08:00,
2013-01-04 13:13:00,37.8,18.4,30.36,NW,323,2.0,8.0,45,0.00,,---,0.00,VWS V14.01,2013-01-04 18:13:00,
2013-01-04 13:18:00,38.1,21.1,30.35,West,277,5.0,6.0,50,0.00,,---,0.00,VWS V14.01,2013-01-04 18:18:00,
2013-01-04 13:23:00,37.5,17.0,30.36,East,88,2.0,4.0,43,0.00,,---,0.00,VWS V14.01,2013-01-04 18:23:00,
2013-01-04 13:28:00,37.9,17.4,30.35,SE,146,2.0,3.0,43,0.00,,---,0.00,VWS V14.01,2013-01-04 18:28:00,
2013-01-04 13:33:00,38.0,19.1,30.35,SW,224,3.0,4.0,46,0.00,,---,0.00,VWS V14.01,2013-01-04 18:33:00,
2013-01-04 13:38:00,38.0,18.6,30.35,WSW,242,4.0,5.0,45,0.00,,---,0.00,VWS V14.01,2013-01-04 18:38:00,
2013-01-04 13:43:00,38.1,18.6,30.35,SSE,162,2.0,4.0,45,0.00,,---,0.00,VWS V14.01,2013-01-04 18:43:00,
2013-01-04 13:48:00,38.4,18.4,30.35,SW,225,2.0,7.0,44,0.00,,---,0.00,VWS V14.01,2013-01-04 18:48:00,
2013-01-04 13:53:00,38.7,19.7,30.34,South,172,0.0,2.0,46,0.00,,---,0.00,VWS V14.01,2013-01-04 18:53:00,
2013-01-04 13:58:00,39.1,20.1,30.34,NE,50,7.0,7.0,46,0.00,,---,0.00,VWS V14.01,2013-01-04 18:58:00,
2013-01-04 14:03:00,38.9,19.4,30.34,WSW,243,6.0,6.0,45,0.00,,---,0.00,VWS V14.01,2013-01-04 19:03:00,
2013-01-04 14:08:00,38.3,18.8,30.34,West,271,3.0,4.0,45,0.00,,---,0.00,VWS V14.01,2013-01-04 19:08:00,
2013-01-04 14:13:00,38.3,19.9,30.34,SSE,165,1.0,1.0,47,0.00,,---,0.00,VWS V14.01,2013-01-04 19:13:00,
2013-01-04 14:18:00,38.6,18.0,30.34,West,277,0.0,6.0,43,0.00,,---,0.00,VWS V14.01,2013-01-04 19:18:00,
2013-01-04 14:23:00,38.8,18.8,30.34,SSE,156,3.0,4.0,44,0.00,,---,0.00,VWS V14.01,2013-01-04 19:23:00,
2013-01-04 14:28:00,39.1,18.5,30.34,SSW,205,3.0,5.0,43,0.00,,---,0.00,VWS V14.01,2013-01-04 19:28:00,
2013-01-04 14:33:00,39.2,19.1,30.34,SE,124,7.0,10.0,44,0.00,,---,0.00,VWS V14.01,2013-01-04 19:33:00,
2013-01-04 14:38:00,38.3,19.4,30.33,SE,146,1.0,7.0,46,0.00,,---,0.00,VWS V14.01,2013-01-04 19:38:00,
2013-01-04 14:43:00,38.0,18.6,30.33,WSW,241,2.0,2.0,45,0.00,,---,0.00,VWS V14.01,2013-01-04 19:43:00,
2013-01-04 14:48:00,37.9,19.0,30.33,West,273,0.0,1.0,46,0.00,,---,0.00,VWS V14.01,2013-01-04 19:48:00,
2013-01-04 14:53:00,37.9,18.5,30.33,SSW,195,3.0,7.0,45,0.00,,---,0.00,VWS V14.01,2013-01-04 19:53:00,
2013-01-04 14:58:00,37.5,18.6,30.33,South,187,3.0,3.0,46,0.00,,---,0.00,VWS V14.01,2013-01-04 19:58:00,
2013-01-04 15:04:00,38.0,18.6,30.33,SE,126,1.0,3.0,45,0.00,,---,0.00,VWS V14.01,2013-01-04 20:04:00,
2013-01-04 15:09:00,37.9,18.5,30.33,SSW,211,0.0,1.0,45,0.00,,---,0.00,VWS V14.01,2013-01-04 20:09:00,
2013-01-04 15:14:00,38.1,20.6,30.34,SSW,210,5.0,7.0,49,0.00,,---,0.00,VWS V14.01,2013-01-04 20:14:00,
2013-01-04 15:19:00,38.1,19.7,30.34,WNW,288,4.0,4.0,47,0.00,,---,0.00,VWS V14.01,2013-01-04 20:19:00,
2013-01-04 15:24:00,37.6,19.2,30.35,SE,142,3.0,3.0,47,0.00,,---,0.00,VWS V14.01,2013-01-04 20:24:00,
2013-01-04 15:29:00,37.7,20.3,30.34,SSE,153,1.0,2.0,49,0.00,,---,0.00,VWS V14.01,2013-01-04 20:29:00,
2013-01-04 15:34:00,38.0,22.0,30.35,South,177,2.0,3.0,52,0.00,,---,0.00,VWS V14.01,2013-01-04 20:34:00,
2013-01-04 15:39:00,38.4,21.9,30.35,SE,135,7.0,7.0,51,0.00,,---,0.00,VWS V14.01,2013-01-04 20:39:00,
2013-01-04 15:44:00,37.8,21.3,30.34,SW,225,2.0,3.0,51,0.00,,---,0.00,VWS V14.01,2013-01-04 20:44:00,
2013-01-04 15:49:00,38.2,20.7,30.35,SSE,156,2.0,2.0,49,0.00,,---,0.00,VWS V14.01,2013-01-04 20:49:00,
2013-01-04 15:54:00,37.8,20.8,30.35,South,181,1.0,3.0,50,0.00,,---,0.00,VWS V14.01,2013-01-04 20:54:00,
2013-01-04 15:59:00,37.9,20.9,30.35,SW,225,1.0,2.0,50,0.00,,---,0.00,VWS V14.01,2013-01-04 20:59:00,
2013-01-04 16:04:00,37.3,18.9,30.36,SSE,163,2.0,2.0,47,0.00,,---,0.00,VWS V14.01,2013-01-04 21:04:00,
2013-01-04 16:09:00,37.5,20.6,30.36,West,280,0.0,0.0,50,0.00,,---,0.00,VWS V14.01,2013-01-04 21:09:00,
2013-01-04 16:14:00,37.2,20.8,30.36,NW,308,1.0,1.0,51,0.00,,---,0.00,VWS V14.01,2013-01-04 21:14:00,
2013-01-04 16:19:00,37.3,23.1,30.36,ENE,69,0.0,0.0,56,0.00,,---,0.00,VWS V14.01,2013-01-04 21:19:00,
2013-01-04 16:24:00,36.4,20.9,30.36,South,188,2.0,4.0,53,0.00,,---,0.00,VWS V14.01,2013-01-04 21:24:00,
2013-01-04 16:29:00,35.5,20.5,30.36,WSW,255,0.0,1.0,54,0.00,,---,0.00,VWS V14.01,2013-01-04 21:29:00,
2013-01-04 16:34:00,34.6,21.4,30.36,SSW,203,0.0,1.0,58,0.00,,---,0.00,VWS V14.01,2013-01-04 21:34:00,
2013-01-04 16:39:00,34.2,21.8,30.35,ESE,111,1.0,2.0,60,0.00,,---,0.00,VWS V14.01,2013-01-04 21:39:00,
2013-01-04 16:44:00,33.9,21.5,30.35,South,187,3.0,3.0,60,0.00,,---,0.00,VWS V14.01,2013-01-04 21:44:00,
2013-01-04 16:49:00,33.6,22.4,30.36,ENE,65,0.0,1.0,63,0.00,,---,0.00,VWS V14.01,2013-01-04 21:49:00,
2013-01-04 16:54:00,33.2,21.6,30.37,WNW,285,4.0,4.0,62,0.00,,---,0.00,VWS V14.01,2013-01-04 21:54:00,
2013-01-04 16:59:00,32.8,22.0,30.36,ESE,103,0.0,0.0,64,0.00,,---,0.00,VWS V14.01,2013-01-04 21:59:00,
2013-01-04 17:04:00,32.5,22.8,30.36,NE,54,5.0,7.0,67,0.00,,---,0.00,VWS V14.01,2013-01-04 22:04:00,
2013-01-04 17:09:00,32.3,21.5,30.37,SSE,156,0.0,1.0,64,0.00,,---,0.00,VWS V14.01,2013-01-04 22:09:00,
2013-01-04 17:14:00,32.1,21.3,30.36,SSE,152,3.0,4.0,64,0.00,,---,0.00,VWS V14.01,2013-01-04 22:14:00,
2013-01-04 17:19:00,32.0,20.9,30.36,SE,131,0.0,1.0,63,0.00,,---,0.00,VWS V14.01,2013-01-04 22:19:00,
2013-01-04 17:24:00,31.9,20.8,30.37,WSW,248,0.0,0.0,63,0.00,,---,0.00,VWS V14.01,2013-01-04 22:24:00,
2013-01-04 17:29:00,31.7,21.3,30.37,SW,229,2.0,2.0,65,0.00,,---,0.00,VWS V14.01,2013-01-04 22:29:00,
2013-01-04 17:34:00,31.5,21.1,30.37,South,176,0.0,2.0,65,0.00,,---,0.00,VWS V14.01,2013-01-04 22:34:00,
2013-01-04 17:39:00,31.3,22.3,30.38,South,176,0.0,0.0,69,0.00,,---,0.00,VWS V14.01,2013-01-04 22:39:00,
2013-01-04 17:44:00,30.9,21.2,30.38,West,277,0.0,0.0,67,0.00,,---,0.00,VWS V14.01,2013-01-04 22:44:00,
2013-01-04 17:49:00,30.8,21.5,30.38,SSW,210,0.0,1.0,68,0.00,,---,0.00,VWS V14.01,2013-01-04 22:49:00,
2013-01-04 17:54:00,30.6,22.0,30.38,South,181,0.0,0.0,70,0.00,,---,0.00,VWS V14.01,2013-01-04 22:54:00,
2013-01-04 17:59:00,30.3,22.7,30.38,WSW,255,0.0,0.0,73,0.00,,---,0.00,VWS V14.01,2013-01-04 22:59:00,
2013-01-04 18:04:00,30.0,22.1,30.38,WSW,251,0.0,0.0,72,0.00,,---,0.00,VWS V14.01,2013-01-04 23:04:00,
2013-01-04 18:09:00,29.7,22.8,30.38,WNW,297,0.0,0.0,75,0.00,,---,0.00,VWS V14.01,2013-01-04 23:09:00,
2013-01-04 18:14:00,29.7,21.8,30.38,East,79,0.0,0.0,72,0.00,,---,0.00,VWS V14.01,2013-01-04 23:14:00,
2013-01-04 18:19:00,29.6,21.7,30.38,East,86,0.0,1.0,72,0.00,,---,0.00,VWS V14.01,2013-01-04 23:19:00,
2013-01-04 18:24:00,29.8,21.2,30.39,SSE,159,1.0,2.0,70,0.00,,---,0.00,VWS V14.01,2013-01-04 23:24:00,
2013-01-04 18:29:00,30.0,21.1,30.39,SE,129,1.0,1.0,69,0.00,,---,0.00,VWS V14.01,2013-01-04 23:29:00,
2013-01-04 18:34:00,30.0,21.1,30.39,SE,141,0.0,1.0,69,0.00,,---,0.00,VWS V14.01,2013-01-04 23:34:00,
2013-01-04 18:39:00,29.8,21.6,30.39,SE,133,1.0,1.0,71,0.00,,---,0.00,VWS V14.01,2013-01-04 23:39:00,
2013-01-04 18:44:00,29.7,21.1,30.39,ESE,122,0.0,0.0,70,0.00,,---,0.00,VWS V14.01,2013-01-04 23:44:00,
2013-01-04 18:49:00,29.6,21.7,30.39,SE,129,1.0,2.0,72,0.00,,---,0.00,VWS V14.01,2013-01-04 23:49:00,
2013-01-04 18:54:00,29.4,21.8,30.39,North,352,0.0,1.0,73,0.00,,---,0.00,VWS V14.01,2013-01-04 23:54:00,
2013-01-04 18:59:00,29.0,21.8,30.39,North,8,0.0,1.0,74,0.00,,---,0.00,VWS V14.01,2013-01-04 23:59:00,
2013-01-04 19:04:00,28.8,22.2,30.39,ESE,105,0.0,0.0,76,0.00,,---,0.00,VWS V14.01,2013-01-05 00:04:00,
2013-01-04 19:09:00,28.6,22.0,30.39,NNE,32,0.0,0.0,76,0.00,,---,0.00,VWS V14.01,2013-01-05 00:09:00,
2013-01-04 19:14:00,28.6,21.7,30.39,SSE,165,0.0,0.0,75,0.00,,---,0.00,VWS V14.01,2013-01-05 00:14:00,
2013-01-04 19:19:00,28.7,21.1,30.39,ESE,122,0.0,0.0,73,0.00,,---,0.00,VWS V14.01,2013-01-05 00:19:00,
2013-01-04 19:24:00,28.8,21.6,30.39,ESE,122,0.0,0.0,74,0.00,,---,0.00,VWS V14.01,2013-01-05 00:24:00,
2013-01-04 19:29:00,28.9,21.7,30.39,ESE,122,0.0,0.0,74,0.00,,---,0.00,VWS V14.01,2013-01-05 00:29:00,
2013-01-04 19:34:00,28.8,22.2,30.39,SSW,195,0.0,1.0,76,0.00,,---,0.00,VWS V14.01,2013-01-05 00:34:00,
2013-01-04 19:39:00,28.4,22.1,30.38,East,79,2.0,2.0,77,0.00,,---,0.00,VWS V14.01,2013-01-05 00:39:00,
2013-01-04 19:44:00,28.7,21.5,30.39,SE,139,2.0,4.0,74,0.00,,---,0.00,VWS V14.01,2013-01-05 00:44:00,
2013-01-04 19:49:00,29.0,21.4,30.39,SE,134,1.0,1.0,73,0.00,,---,0.00,VWS V14.01,2013-01-05 00:49:00,
2013-01-04 19:54:00,28.9,22.0,30.40,WNW,295,0.0,2.0,75,0.00,,---,0.00,VWS V14.01,2013-01-05 00:54:00,
2013-01-04 19:59:00,28.8,21.6,30.40,SW,214,0.0,1.0,74,0.00,,---,0.00,VWS V14.01,2013-01-05 00:59:00,
2013-01-04 20:04:00,28.8,21.9,30.40,East,101,0.0,1.0,75,0.00,,---,0.00,VWS V14.01,2013-01-05 01:04:00,
2013-01-04 20:09:00,28.6,21.7,30.41,SSW,207,0.0,1.0,75,0.00,,---,0.00,VWS V14.01,2013-01-05 01:09:00,
2013-01-04 20:14:00,28.5,21.3,30.40,South,187,0.0,1.0,74,0.00,,---,0.00,VWS V14.01,2013-01-05 01:14:00,
2013-01-04 20:19:00,28.6,21.1,30.40,South,186,0.0,0.0,73,0.00,,---,0.00,VWS V14.01,2013-01-05 01:19:00,
2013-01-04 20:24:00,28.5,21.9,30.41,SE,126,1.0,1.0,76,0.00,,---,0.00,VWS V14.01,2013-01-05 01:24:00,
2013-01-04 20:29:00,28.2,21.9,30.41,SSE,147,0.0,0.0,77,0.00,,---,0.00,VWS V14.01,2013-01-05 01:29:00,
2013-01-04 20:34:00,28.0,21.1,30.40,SSW,203,5.0,8.0,75,0.00,,---,0.00,VWS V14.01,2013-01-05 01:34:00,
2013-01-04 20:39:00,28.2,20.4,30.40,West,280,1.0,1.0,72,0.00,,---,0.00,VWS V14.01,2013-01-05 01:39:00,
2013-01-04 20:44:00,28.4,20.9,30.40,WNW,291,0.0,0.0,73,0.00,,---,0.00,VWS V14.01,2013-01-05 01:44:00,
2013-01-04 20:49:00,28.2,21.0,30.40,SSE,150,0.0,0.0,74,0.00,,---,0.00,VWS V14.01,2013-01-05 01:49:00,
2013-01-04 20:54:00,27.7,21.1,30.41,South,169,0.0,1.0,76,0.00,,---,0.00,VWS V14.01,2013-01-05 01:54:00,
2013-01-04 20:59:00,27.8,20.9,30.41,WNW,300,1.0,2.0,75,0.00,,---,0.00,VWS V14.01,2013-01-05 01:59:00,
2013-01-04 21:04:00,27.7,20.8,30.40,SSE,150,0.0,0.0,75,0.00,,---,0.00,VWS V14.01,2013-01-05 02:04:00,
2013-01-04 21:09:00,27.5,20.9,30.41,SSE,155,1.0,2.0,76,0.00,,---,0.00,VWS V14.01,2013-01-05 02:09:00,
2013-01-04 21:14:00,27.7,21.1,30.41,SE,143,0.0,0.0,76,0.00,,---,0.00,VWS V14.01,2013-01-05 02:14:00,
2013-01-04 21:19:00,27.5,21.2,30.41,SE,143,0.0,0.0,77,0.00,,---,0.00,VWS V14.01,2013-01-05 02:19:00,
2013-01-04 21:24:00,27.4,20.8,30.41,NW,318,0.0,0.0,76,0.00,,---,0.00,VWS V14.01,2013-01-05 02:24:00,
2013-01-04 21:29:00,27.0,21.1,30.41,NW,318,0.0,0.0,78,0.00,,---,0.00,VWS V14.01,2013-01-05 02:29:00,
2013-01-04 21:34:00,26.8,21.2,30.41,SE,129,0.0,1.0,79,0.00,,---,0.00,VWS V14.01,2013-01-05 02:34:00,
2013-01-04 21:39:00,26.6,21.9,30.41,SE,129,0.0,0.0,82,0.00,,---,0.00,VWS V14.01,2013-01-05 02:39:00,
2013-01-04 21:44:00,26.3,21.0,30.40,SE,129,0.0,0.0,80,0.00,,---,0.00,VWS V14.01,2013-01-05 02:44:00,
2013-01-04 21:49:00,26.2,21.5,30.40,SE,130,0.0,0.0,82,0.00,,---,0.00,VWS V14.01,2013-01-05 02:49:00,
2013-01-04 21:54:00,26.1,21.4,30.40,NW,304,0.0,1.0,82,0.00,,---,0.00,VWS V14.01,2013-01-05 02:54:00,
2013-01-04 21:59:00,26.1,21.4,30.40,SE,136,0.0,0.0,82,0.00,,---,0.00,VWS V14.01,2013-01-05 02:59:00,
2013-01-04 22:04:00,26.0,21.3,30.40,NE,50,1.0,1.0,82,0.00,,---,0.00,VWS V14.01,2013-01-05 03:04:00,
2013-01-04 22:09:00,25.8,21.4,30.41,NNW,339,0.0,1.0,83,0.00,,---,0.00,VWS V14.01,2013-01-05 03:09:00,
2013-01-04 22:14:00,25.9,20.9,30.41,ENE,68,1.0,1.0,81,0.00,,---,0.00,VWS V14.01,2013-01-05 03:14:00,
2013-01-04 22:19:00,25.8,21.1,30.41,WNW,283,0.0,0.0,82,0.00,,---,0.00,VWS V14.01,2013-01-05 03:19:00,
2013-01-04 22:24:00,25.8,20.8,30.41,SW,232,0.0,0.0,81,0.00,,---,0.00,VWS V14.01,2013-01-05 03:24:00,
2013-01-04 22:29:00,25.7,21.3,30.40,SW,232,0.0,0.0,83,0.00,,---,0.00,VWS V14.01,2013-01-05 03:29:00,
2013-01-04 22:34:00,25.7,21.0,30.40,SW,232,0.0,0.0,82,0.00,,---,0.00,VWS V14.01,2013-01-05 03:34:00,
2013-01-04 22:39:00,25.6,20.6,30.41,SE,126,0.0,0.0,81,0.00,,---,0.00,VWS V14.01,2013-01-05 03:39:00,
2013-01-04 22:44:00,25.7,21.5,30.42,ESE,110,1.0,1.0,84,0.00,,---,0.00,VWS V14.01,2013-01-05 03:44:00,
2013-01-04 22:49:00,25.6,21.2,30.42,ESE,105,0.0,0.0,83,0.00,,---,0.00,VWS V14.01,2013-01-05 03:49:00,
2013-01-04 22:54:00,25.6,20.9,30.41,ESE,105,0.0,0.0,82,0.00,,---,0.00,VWS V14.01,2013-01-05 03:54:00,
2013-01-04 22:59:00,25.6,21.2,30.42,ESE,105,0.0,0.0,83,0.00,,---,0.00,VWS V14.01,2013-01-05 03:59:00,
2013-01-04 23:04:00,25.5,21.4,30.42,ESE,104,0.0,0.0,84,0.00,,---,0.00,VWS V14.01,2013-01-05 04:04:00,
2013-01-04 23:09:00,25.4,21.0,30.42,ENE,64,0.0,1.0,83,0.00,,---,0.00,VWS V14.01,2013-01-05 04:09:00,
2013-01-04 23:14:00,25.3,21.1,30.42,ENE,64,0.0,0.0,84,0.00,,---,0.00,VWS V14.01,2013-01-05 04:14:00,
2013-01-04 23:19:00,25.2,20.2,30.43,WNW,297,0.0,1.0,81,0.00,,---,0.00,VWS V14.01,2013-01-05 04:19:00,
2013-01-04 23:24:00,25.5,20.8,30.42,NNE,27,1.0,1.0,82,0.00,,---,0.00,VWS V14.01,2013-01-05 04:24:00,
2013-01-04 23:29:00,25.4,20.4,30.42,NNE,27,0.0,0.0,81,0.00,,---,0.00,VWS V14.01,2013-01-05 04:29:00,
2013-01-04 23:34:00,25.3,20.9,30.43,NNE,27,0.0,0.0,83,0.00,,---,0.00,VWS V14.01,2013-01-05 04:34:00,
2013-01-04 23:39:00,25.4,19.5,30.43,NW,321,0.0,0.0,78,0.00,,---,0.00,VWS V14.01,2013-01-05 04:39:00,
2013-01-04 23:44:00,25.5,20.8,30.43,NW,322,0.0,0.0,82,0.00,,---,0.00,VWS V14.01,2013-01-05 04:44:00,
2013-01-04 23:49:00,25.3,20.3,30.43,NW,323,0.0,0.0,81,0.00,,---,0.00,VWS V14.01,2013-01-05 04:49:00,
2013-01-04 23:54:00,25.1,21.0,30.43,North,8,0.0,0.0,84,0.00,,---,0.00,VWS V14.01,2013-01-05 04:54:00,
2013-01-04 23:59:00,24.9,20.8,30.43,North,9,0.0,0.0,84,0.00,,---,0.00,VWS V14.01,2013-01-05 04:59:00,